sensor_id;sensor_type;location;lat;lon;timestamp;P1;durP1;ratioP1;P2;durP2;ratioP2
1390;SDS011;690;51.454;7.194;2022-08-21T00:01:26;5.70;;;4.00;;
1390;SDS011;690;51.454;7.194;2022-08-21T00:03:55;7.30;;;4.03;;
1390;SDS011;690;51.454;7.194;2022-08-21T00:06:26;6.13;;;4.03;;
1390;SDS011;690;51.454;7.194;2022-08-21T00:08:53;5.13;;;3.40;;
1390;SDS011;690;51.454;7.194;2022-08-21T00:11:20;8.40;;;4.33;;
1390;SDS011;690;51.454;7.194;2022-08-21T00:13:47;10.30;;;4.70;;
1390;SDS011;690;51.454;7.194;2022-08-21T00:16:14;7.90;;;4.10;;
1390;SDS011;690;51.454;7.194;2022-08-21T00:18:41;9.70;;;4.10;;
1390;SDS011;690;51.454;7.194;2022-08-21T00:21:07;9.20;;;4.60;;
1390;SDS011;690;51.454;7.194;2022-08-21T00:23:36;7.60;;;4.07;;
1390;SDS011;690;51.454;7.194;2022-08-21T00:26:03;10.10;;;4.90;;
1390;SDS011;690;51.454;7.194;2022-08-21T00:28:30;5.70;;;4.20;;
1390;SDS011;690;51.454;7.194;2022-08-21T00:31:00;6.60;;;4.47;;
1390;SDS011;690;51.454;7.194;2022-08-21T00:33:29;8.83;;;4.30;;
1390;SDS011;690;51.454;7.194;2022-08-21T00:35:56;8.37;;;4.83;;
1390;SDS011;690;51.454;7.194;2022-08-21T00:38:23;7.50;;;4.43;;
1390;SDS011;690;51.454;7.194;2022-08-21T00:40:53;7.10;;;4.70;;
1390;SDS011;690;51.454;7.194;2022-08-21T00:43:24;10.60;;;3.77;;
1390;SDS011;690;51.454;7.194;2022-08-21T00:45:53;5.70;;;4.27;;
1390;SDS011;690;51.454;7.194;2022-08-21T00:48:21;8.87;;;4.90;;
1390;SDS011;690;51.454;7.194;2022-08-21T00:50:53;8.57;;;5.30;;
1390;SDS011;690;51.454;7.194;2022-08-21T00:53:23;6.80;;;4.90;;
1390;SDS011;690;51.454;7.194;2022-08-21T00:55:52;5.33;;;4.40;;
1390;SDS011;690;51.454;7.194;2022-08-21T00:58:20;7.53;;;4.27;;
1390;SDS011;690;51.454;7.194;2022-08-21T01:00:50;7.47;;;4.87;;
1390;SDS011;690;51.454;7.194;2022-08-21T01:03:18;12.10;;;6.00;;
1390;SDS011;690;51.454;7.194;2022-08-21T01:05:48;6.70;;;4.63;;
1390;SDS011;690;51.454;7.194;2022-08-21T01:08:19;10.43;;;5.30;;
1390;SDS011;690;51.454;7.194;2022-08-21T01:10:46;10.37;;;5.00;;
1390;SDS011;690;51.454;7.194;2022-08-21T01:13:17;7.83;;;5.20;;
1390;SDS011;690;51.454;7.194;2022-08-21T01:15:46;8.03;;;5.40;;
1390;SDS011;690;51.454;7.194;2022-08-21T01:18:15;8.73;;;5.20;;
1390;SDS011;690;51.454;7.194;2022-08-21T01:20:45;10.60;;;5.30;;
1390;SDS011;690;51.454;7.194;2022-08-21T01:23:23;9.90;;;6.30;;
1390;SDS011;690;51.454;7.194;2022-08-21T01:25:50;9.70;;;5.57;;
1390;SDS011;690;51.454;7.194;2022-08-21T01:28:16;12.50;;;5.93;;
1390;SDS011;690;51.454;7.194;2022-08-21T01:30:45;7.57;;;5.80;;
1390;SDS011;690;51.454;7.194;2022-08-21T01:33:14;10.57;;;6.60;;
1390;SDS011;690;51.454;7.194;2022-08-21T01:35:43;8.37;;;6.07;;
1390;SDS011;690;51.454;7.194;2022-08-21T01:38:11;10.40;;;5.30;;
1390;SDS011;690;51.454;7.194;2022-08-21T01:40:40;14.87;;;6.23;;
1390;SDS011;690;51.454;7.194;2022-08-21T01:43:07;11.50;;;5.70;;
1390;SDS011;690;51.454;7.194;2022-08-21T01:45:34;9.23;;;6.30;;
1390;SDS011;690;51.454;7.194;2022-08-21T01:48:01;12.60;;;6.33;;
1390;SDS011;690;51.454;7.194;2022-08-21T01:50:28;9.73;;;6.30;;
1390;SDS011;690;51.454;7.194;2022-08-21T01:52:55;9.83;;;7.17;;
1390;SDS011;690;51.454;7.194;2022-08-21T01:55:23;11.93;;;7.90;;
1390;SDS011;690;51.454;7.194;2022-08-21T01:57:53;10.70;;;6.37;;
1390;SDS011;690;51.454;7.194;2022-08-21T02:00:22;8.47;;;6.80;;
1390;SDS011;690;51.454;7.194;2022-08-21T02:02:52;11.77;;;7.60;;
1390;SDS011;690;51.454;7.194;2022-08-21T02:05:21;8.87;;;7.50;;
1390;SDS011;690;51.454;7.194;2022-08-21T02:07:50;10.10;;;6.40;;
1390;SDS011;690;51.454;7.194;2022-08-21T02:10:19;11.60;;;7.07;;
1390;SDS011;690;51.454;7.194;2022-08-21T02:12:51;8.63;;;6.87;;
1390;SDS011;690;51.454;7.194;2022-08-21T02:15:18;9.67;;;7.27;;
1390;SDS011;690;51.454;7.194;2022-08-21T02:17:46;12.87;;;8.60;;
1390;SDS011;690;51.454;7.194;2022-08-21T02:20:15;12.63;;;7.47;;
1390;SDS011;690;51.454;7.194;2022-08-21T02:22:45;11.27;;;7.50;;
1390;SDS011;690;51.454;7.194;2022-08-21T02:25:12;10.13;;;6.93;;
1390;SDS011;690;51.454;7.194;2022-08-21T02:27:42;10.60;;;6.60;;
1390;SDS011;690;51.454;7.194;2022-08-21T02:30:15;7.67;;;6.87;;
1390;SDS011;690;51.454;7.194;2022-08-21T02:32:44;11.27;;;7.90;;
1390;SDS011;690;51.454;7.194;2022-08-21T02:35:11;9.93;;;7.53;;
1390;SDS011;690;51.454;7.194;2022-08-21T02:37:46;11.13;;;7.50;;
1390;SDS011;690;51.454;7.194;2022-08-21T02:40:18;9.70;;;7.83;;
1390;SDS011;690;51.454;7.194;2022-08-21T02:42:47;11.13;;;7.00;;
1390;SDS011;690;51.454;7.194;2022-08-21T02:45:16;14.83;;;8.03;;
1390;SDS011;690;51.454;7.194;2022-08-21T02:47:46;9.10;;;6.63;;
1390;SDS011;690;51.454;7.194;2022-08-21T02:50:16;13.00;;;8.03;;
1390;SDS011;690;51.454;7.194;2022-08-21T02:52:44;10.57;;;7.03;;
1390;SDS011;690;51.454;7.194;2022-08-21T02:55:11;16.27;;;8.10;;
1390;SDS011;690;51.454;7.194;2022-08-21T02:57:38;10.20;;;8.10;;
1390;SDS011;690;51.454;7.194;2022-08-21T03:00:06;8.47;;;6.70;;
1390;SDS011;690;51.454;7.194;2022-08-21T03:02:39;13.27;;;7.10;;
1390;SDS011;690;51.454;7.194;2022-08-21T03:05:07;13.40;;;7.97;;
1390;SDS011;690;51.454;7.194;2022-08-21T03:07:35;9.77;;;7.30;;
1390;SDS011;690;51.454;7.194;2022-08-21T03:10:02;12.27;;;8.77;;
1390;SDS011;690;51.454;7.194;2022-08-21T03:12:29;10.33;;;7.60;;
1390;SDS011;690;51.454;7.194;2022-08-21T03:14:56;11.53;;;7.70;;
1390;SDS011;690;51.454;7.194;2022-08-21T03:17:25;11.57;;;7.37;;
1390;SDS011;690;51.454;7.194;2022-08-21T03:19:53;11.17;;;8.00;;
1390;SDS011;690;51.454;7.194;2022-08-21T03:22:21;11.53;;;7.10;;
1390;SDS011;690;51.454;7.194;2022-08-21T03:24:50;12.70;;;7.77;;
1390;SDS011;690;51.454;7.194;2022-08-21T03:27:17;10.90;;;6.90;;
1390;SDS011;690;51.454;7.194;2022-08-21T03:29:44;13.10;;;7.93;;
1390;SDS011;690;51.454;7.194;2022-08-21T03:32:11;10.53;;;7.60;;
1390;SDS011;690;51.454;7.194;2022-08-21T03:34:38;7.57;;;6.87;;
1390;SDS011;690;51.454;7.194;2022-08-21T03:37:07;8.67;;;7.83;;
1390;SDS011;690;51.454;7.194;2022-08-21T03:39:36;9.10;;;7.70;;
1390;SDS011;690;51.454;7.194;2022-08-21T03:42:03;14.30;;;7.83;;
1390;SDS011;690;51.454;7.194;2022-08-21T03:44:31;13.10;;;8.60;;
1390;SDS011;690;51.454;7.194;2022-08-21T03:46:58;10.47;;;8.60;;
1390;SDS011;690;51.454;7.194;2022-08-21T03:49:25;15.27;;;8.23;;
1390;SDS011;690;51.454;7.194;2022-08-21T03:51:55;12.23;;;8.70;;
1390;SDS011;690;51.454;7.194;2022-08-21T03:54:23;12.27;;;9.13;;
1390;SDS011;690;51.454;7.194;2022-08-21T03:56:50;13.47;;;8.33;;
1390;SDS011;690;51.454;7.194;2022-08-21T03:59:17;13.80;;;8.67;;
1390;SDS011;690;51.454;7.194;2022-08-21T04:01:50;11.90;;;8.50;;
1390;SDS011;690;51.454;7.194;2022-08-21T04:04:18;12.03;;;8.77;;
1390;SDS011;690;51.454;7.194;2022-08-21T04:06:46;10.10;;;9.10;;
1390;SDS011;690;51.454;7.194;2022-08-21T04:09:14;13.20;;;9.10;;
1390;SDS011;690;51.454;7.194;2022-08-21T04:11:43;11.30;;;8.43;;
1390;SDS011;690;51.454;7.194;2022-08-21T04:14:11;12.60;;;8.20;;
1390;SDS011;690;51.454;7.194;2022-08-21T04:16:41;14.20;;;8.27;;
1390;SDS011;690;51.454;7.194;2022-08-21T04:19:08;12.93;;;7.23;;
1390;SDS011;690;51.454;7.194;2022-08-21T04:21:38;17.60;;;9.60;;
1390;SDS011;690;51.454;7.194;2022-08-21T04:24:06;11.73;;;9.17;;
1390;SDS011;690;51.454;7.194;2022-08-21T04:26:34;13.17;;;9.40;;
1390;SDS011;690;51.454;7.194;2022-08-21T04:29:03;16.03;;;8.40;;
1390;SDS011;690;51.454;7.194;2022-08-21T04:31:31;9.90;;;9.00;;
1390;SDS011;690;51.454;7.194;2022-08-21T04:33:59;15.17;;;9.90;;
1390;SDS011;690;51.454;7.194;2022-08-21T04:36:26;13.27;;;8.10;;
1390;SDS011;690;51.454;7.194;2022-08-21T04:38:53;10.30;;;8.03;;
1390;SDS011;690;51.454;7.194;2022-08-21T04:41:20;10.60;;;8.77;;
1390;SDS011;690;51.454;7.194;2022-08-21T04:43:47;11.57;;;7.80;;
1390;SDS011;690;51.454;7.194;2022-08-21T04:46:16;13.10;;;8.77;;
1390;SDS011;690;51.454;7.194;2022-08-21T04:48:43;9.57;;;8.37;;
1390;SDS011;690;51.454;7.194;2022-08-21T04:51:11;9.43;;;7.47;;
1390;SDS011;690;51.454;7.194;2022-08-21T04:53:43;13.90;;;8.37;;
1390;SDS011;690;51.454;7.194;2022-08-21T04:56:12;14.70;;;8.83;;
1390;SDS011;690;51.454;7.194;2022-08-21T04:58:44;12.27;;;8.60;;
1390;SDS011;690;51.454;7.194;2022-08-21T05:01:15;10.90;;;8.00;;
1390;SDS011;690;51.454;7.194;2022-08-21T05:03:50;8.30;;;6.33;;
1390;SDS011;690;51.454;7.194;2022-08-21T05:06:20;8.43;;;7.20;;
1390;SDS011;690;51.454;7.194;2022-08-21T05:08:48;10.63;;;8.30;;
1390;SDS011;690;51.454;7.194;2022-08-21T05:11:17;11.40;;;7.53;;
1390;SDS011;690;51.454;7.194;2022-08-21T05:13:47;12.73;;;8.40;;
1390;SDS011;690;51.454;7.194;2022-08-21T05:16:14;14.50;;;8.00;;
1390;SDS011;690;51.454;7.194;2022-08-21T05:18:42;12.50;;;8.43;;
1390;SDS011;690;51.454;7.194;2022-08-21T05:21:09;11.87;;;7.20;;
1390;SDS011;690;51.454;7.194;2022-08-21T05:23:36;9.57;;;8.33;;
1390;SDS011;690;51.454;7.194;2022-08-21T05:26:03;13.30;;;8.10;;
1390;SDS011;690;51.454;7.194;2022-08-21T05:28:30;12.67;;;7.33;;
1390;SDS011;690;51.454;7.194;2022-08-21T05:31:02;10.30;;;8.17;;
1390;SDS011;690;51.454;7.194;2022-08-21T05:33:29;10.83;;;8.13;;
1390;SDS011;690;51.454;7.194;2022-08-21T05:35:58;14.33;;;7.60;;
1390;SDS011;690;51.454;7.194;2022-08-21T05:38:25;10.67;;;7.90;;
1390;SDS011;690;51.454;7.194;2022-08-21T05:40:53;10.50;;;7.80;;
1390;SDS011;690;51.454;7.194;2022-08-21T05:43:21;14.67;;;8.40;;
1390;SDS011;690;51.454;7.194;2022-08-21T05:45:47;9.10;;;7.13;;
1390;SDS011;690;51.454;7.194;2022-08-21T05:48:19;11.20;;;7.73;;
1390;SDS011;690;51.454;7.194;2022-08-21T05:50:49;11.43;;;7.40;;
1390;SDS011;690;51.454;7.194;2022-08-21T05:53:19;14.73;;;8.33;;
1390;SDS011;690;51.454;7.194;2022-08-21T05:55:47;12.20;;;8.53;;
1390;SDS011;690;51.454;7.194;2022-08-21T05:58:16;13.97;;;7.53;;
1390;SDS011;690;51.454;7.194;2022-08-21T06:00:44;10.77;;;8.33;;
1390;SDS011;690;51.454;7.194;2022-08-21T06:03:13;11.07;;;7.83;;
1390;SDS011;690;51.454;7.194;2022-08-21T06:05:42;9.50;;;8.13;;
1390;SDS011;690;51.454;7.194;2022-08-21T06:08:10;10.00;;;8.27;;
1390;SDS011;690;51.454;7.194;2022-08-21T06:10:39;11.40;;;8.37;;
1390;SDS011;690;51.454;7.194;2022-08-21T06:13:05;11.33;;;8.47;;
1390;SDS011;690;51.454;7.194;2022-08-21T06:15:33;13.73;;;8.13;;
1390;SDS011;690;51.454;7.194;2022-08-21T06:18:00;12.33;;;8.70;;
1390;SDS011;690;51.454;7.194;2022-08-21T06:20:27;15.20;;;8.80;;
1390;SDS011;690;51.454;7.194;2022-08-21T06:22:54;13.40;;;8.80;;
1390;SDS011;690;51.454;7.194;2022-08-21T06:25:20;13.10;;;8.70;;
1390;SDS011;690;51.454;7.194;2022-08-21T06:27:49;10.30;;;8.60;;
1390;SDS011;690;51.454;7.194;2022-08-21T06:30:16;14.03;;;9.43;;
1390;SDS011;690;51.454;7.194;2022-08-21T06:32:44;16.03;;;11.17;;
1390;SDS011;690;51.454;7.194;2022-08-21T06:35:11;12.03;;;10.23;;
1390;SDS011;690;51.454;7.194;2022-08-21T06:37:38;19.93;;;10.13;;
1390;SDS011;690;51.454;7.194;2022-08-21T06:40:05;13.03;;;10.90;;
1390;SDS011;690;51.454;7.194;2022-08-21T06:42:32;11.73;;;8.70;;
1390;SDS011;690;51.454;7.194;2022-08-21T06:45:01;17.17;;;11.60;;
1390;SDS011;690;51.454;7.194;2022-08-21T06:47:28;15.90;;;10.30;;
1390;SDS011;690;51.454;7.194;2022-08-21T06:49:55;16.70;;;11.27;;
1390;SDS011;690;51.454;7.194;2022-08-21T06:52:21;14.53;;;11.17;;
1390;SDS011;690;51.454;7.194;2022-08-21T06:54:48;15.70;;;10.10;;
1390;SDS011;690;51.454;7.194;2022-08-21T06:57:15;12.43;;;9.30;;
1390;SDS011;690;51.454;7.194;2022-08-21T06:59:42;15.03;;;10.70;;
1390;SDS011;690;51.454;7.194;2022-08-21T07:02:10;13.70;;;10.53;;
1390;SDS011;690;51.454;7.194;2022-08-21T07:04:37;17.67;;;10.93;;
1390;SDS011;690;51.454;7.194;2022-08-21T07:07:04;13.10;;;10.03;;
1390;SDS011;690;51.454;7.194;2022-08-21T07:09:31;13.50;;;11.70;;
1390;SDS011;690;51.454;7.194;2022-08-21T07:11:58;19.17;;;10.87;;
1390;SDS011;690;51.454;7.194;2022-08-21T07:14:25;14.53;;;9.50;;
1390;SDS011;690;51.454;7.194;2022-08-21T07:16:52;13.70;;;9.70;;
1390;SDS011;690;51.454;7.194;2022-08-21T07:19:20;19.97;;;10.73;;
1390;SDS011;690;51.454;7.194;2022-08-21T07:21:47;11.37;;;10.17;;
1390;SDS011;690;51.454;7.194;2022-08-21T07:24:14;14.27;;;11.10;;
1390;SDS011;690;51.454;7.194;2022-08-21T07:26:41;11.70;;;9.23;;
1390;SDS011;690;51.454;7.194;2022-08-21T07:29:08;14.63;;;10.10;;
1390;SDS011;690;51.454;7.194;2022-08-21T07:31:35;14.83;;;10.67;;
1390;SDS011;690;51.454;7.194;2022-08-21T07:34:02;14.93;;;10.30;;
1390;SDS011;690;51.454;7.194;2022-08-21T07:36:30;15.30;;;10.43;;
1390;SDS011;690;51.454;7.194;2022-08-21T07:38:57;13.97;;;9.80;;
1390;SDS011;690;51.454;7.194;2022-08-21T07:41:25;14.90;;;9.50;;
1390;SDS011;690;51.454;7.194;2022-08-21T07:43:54;14.30;;;10.03;;
1390;SDS011;690;51.454;7.194;2022-08-21T07:46:22;10.30;;;8.90;;
1390;SDS011;690;51.454;7.194;2022-08-21T07:48:49;16.87;;;7.40;;
1390;SDS011;690;51.454;7.194;2022-08-21T07:51:17;11.20;;;6.53;;
1390;SDS011;690;51.454;7.194;2022-08-21T07:53:48;9.10;;;5.97;;
1390;SDS011;690;51.454;7.194;2022-08-21T07:56:16;9.67;;;5.03;;
1390;SDS011;690;51.454;7.194;2022-08-21T07:58:43;8.77;;;5.20;;
1390;SDS011;690;51.454;7.194;2022-08-21T08:01:10;8.00;;;4.47;;
1390;SDS011;690;51.454;7.194;2022-08-21T08:03:37;7.07;;;4.00;;
1390;SDS011;690;51.454;7.194;2022-08-21T08:06:04;6.00;;;3.50;;
1390;SDS011;690;51.454;7.194;2022-08-21T08:08:36;5.90;;;2.60;;
1390;SDS011;690;51.454;7.194;2022-08-21T08:11:04;5.37;;;3.37;;
1390;SDS011;690;51.454;7.194;2022-08-21T08:13:31;7.20;;;3.63;;
1390;SDS011;690;51.454;7.194;2022-08-21T08:16:03;8.70;;;3.83;;
1390;SDS011;690;51.454;7.194;2022-08-21T08:18:31;8.30;;;3.40;;
1390;SDS011;690;51.454;7.194;2022-08-21T08:20:57;5.67;;;3.10;;
1390;SDS011;690;51.454;7.194;2022-08-21T08:23:24;8.70;;;3.27;;
1390;SDS011;690;51.454;7.194;2022-08-21T08:25:52;6.43;;;3.27;;
1390;SDS011;690;51.454;7.194;2022-08-21T08:28:20;4.97;;;3.47;;
1390;SDS011;690;51.454;7.194;2022-08-21T08:30:47;5.80;;;3.07;;
1390;SDS011;690;51.454;7.194;2022-08-21T08:33:15;8.97;;;3.30;;
1390;SDS011;690;51.454;7.194;2022-08-21T08:35:43;8.67;;;3.47;;
1390;SDS011;690;51.454;7.194;2022-08-21T08:38:12;8.47;;;3.40;;
1390;SDS011;690;51.454;7.194;2022-08-21T08:40:44;7.83;;;3.50;;
1390;SDS011;690;51.454;7.194;2022-08-21T08:43:18;6.50;;;3.17;;
1390;SDS011;690;51.454;7.194;2022-08-21T08:45:48;6.30;;;3.30;;
1390;SDS011;690;51.454;7.194;2022-08-21T08:48:30;5.80;;;3.97;;
1390;SDS011;690;51.454;7.194;2022-08-21T08:51:03;6.40;;;3.47;;
1390;SDS011;690;51.454;7.194;2022-08-21T08:53:37;8.53;;;3.67;;
1390;SDS011;690;51.454;7.194;2022-08-21T08:56:13;9.27;;;3.67;;
1390;SDS011;690;51.454;7.194;2022-08-21T08:58:41;8.30;;;4.30;;
1390;SDS011;690;51.454;7.194;2022-08-21T09:01:13;5.67;;;3.00;;
1390;SDS011;690;51.454;7.194;2022-08-21T09:03:43;6.63;;;4.00;;
1390;SDS011;690;51.454;7.194;2022-08-21T09:06:17;5.63;;;3.43;;
1390;SDS011;690;51.454;7.194;2022-08-21T09:08:54;9.60;;;3.80;;
1390;SDS011;690;51.454;7.194;2022-08-21T09:11:35;10.20;;;3.90;;
1390;SDS011;690;51.454;7.194;2022-08-21T09:14:10;9.77;;;3.60;;
1390;SDS011;690;51.454;7.194;2022-08-21T09:16:49;8.47;;;3.47;;
1390;SDS011;690;51.454;7.194;2022-08-21T09:19:28;6.63;;;3.57;;
1390;SDS011;690;51.454;7.194;2022-08-21T09:22:07;6.67;;;3.60;;
1390;SDS011;690;51.454;7.194;2022-08-21T09:24:40;5.10;;;3.20;;
1390;SDS011;690;51.454;7.194;2022-08-21T09:27:17;4.87;;;2.80;;
1390;SDS011;690;51.454;7.194;2022-08-21T09:29:46;6.53;;;3.33;;
1390;SDS011;690;51.454;7.194;2022-08-21T09:32:17;5.97;;;3.50;;
1390;SDS011;690;51.454;7.194;2022-08-21T09:37:44;8.90;;;3.13;;
1390;SDS011;690;51.454;7.194;2022-08-21T09:40:15;7.17;;;3.70;;
1390;SDS011;690;51.454;7.194;2022-08-21T09:42:53;5.00;;;2.70;;
1390;SDS011;690;51.454;7.194;2022-08-21T09:45:21;5.77;;;3.00;;
1390;SDS011;690;51.454;7.194;2022-08-21T09:47:50;8.97;;;3.00;;
1390;SDS011;690;51.454;7.194;2022-08-21T09:50:19;4.80;;;2.63;;
1390;SDS011;690;51.454;7.194;2022-08-21T09:52:50;6.30;;;3.00;;
1390;SDS011;690;51.454;7.194;2022-08-21T09:55:21;5.77;;;2.57;;
1390;SDS011;690;51.454;7.194;2022-08-21T09:58:14;5.57;;;2.50;;
1390;SDS011;690;51.454;7.194;2022-08-21T10:00:41;6.63;;;2.63;;
1390;SDS011;690;51.454;7.194;2022-08-21T10:03:11;5.47;;;2.70;;
1390;SDS011;690;51.454;7.194;2022-08-21T10:05:50;8.13;;;3.90;;
1390;SDS011;690;51.454;7.194;2022-08-21T10:08:20;8.60;;;3.20;;
1390;SDS011;690;51.454;7.194;2022-08-21T10:10:50;6.03;;;2.70;;
1390;SDS011;690;51.454;7.194;2022-08-21T10:13:21;6.40;;;2.33;;
1390;SDS011;690;51.454;7.194;2022-08-21T10:15:56;4.80;;;2.47;;
1390;SDS011;690;51.454;7.194;2022-08-21T10:18:35;6.30;;;2.60;;
1390;SDS011;690;51.454;7.194;2022-08-21T10:21:07;4.60;;;1.93;;
1390;SDS011;690;51.454;7.194;2022-08-21T10:23:42;5.17;;;1.90;;
1390;SDS011;690;51.454;7.194;2022-08-21T10:26:20;3.37;;;2.20;;
1390;SDS011;690;51.454;7.194;2022-08-21T10:29:01;5.40;;;2.10;;
1390;SDS011;690;51.454;7.194;2022-08-21T10:31:32;3.13;;;1.73;;
1390;SDS011;690;51.454;7.194;2022-08-21T10:34:13;4.60;;;2.30;;
1390;SDS011;690;51.454;7.194;2022-08-21T10:36:52;4.00;;;2.00;;
1390;SDS011;690;51.454;7.194;2022-08-21T10:39:28;5.10;;;2.40;;
1390;SDS011;690;51.454;7.194;2022-08-21T10:42:06;5.63;;;2.00;;
1390;SDS011;690;51.454;7.194;2022-08-21T10:44:49;3.40;;;1.60;;
1390;SDS011;690;51.454;7.194;2022-08-21T10:47:27;5.23;;;2.10;;
1390;SDS011;690;51.454;7.194;2022-08-21T10:50:01;5.70;;;1.80;;
1390;SDS011;690;51.454;7.194;2022-08-21T10:52:37;3.70;;;1.57;;
1390;SDS011;690;51.454;7.194;2022-08-21T10:55:18;3.13;;;1.90;;
1390;SDS011;690;51.454;7.194;2022-08-21T10:57:49;3.70;;;2.07;;
1390;SDS011;690;51.454;7.194;2022-08-21T11:00:21;4.50;;;1.67;;
1390;SDS011;690;51.454;7.194;2022-08-21T11:02:50;5.23;;;1.83;;
1390;SDS011;690;51.454;7.194;2022-08-21T11:05:24;7.07;;;1.87;;
1390;SDS011;690;51.454;7.194;2022-08-21T11:07:54;3.10;;;1.73;;
1390;SDS011;690;51.454;7.194;2022-08-21T11:10:30;3.50;;;1.70;;
1390;SDS011;690;51.454;7.194;2022-08-21T11:13:01;2.27;;;1.23;;
1390;SDS011;690;51.454;7.194;2022-08-21T11:15:34;4.97;;;1.80;;
1390;SDS011;690;51.454;7.194;2022-08-21T11:18:15;3.80;;;1.60;;
1390;SDS011;690;51.454;7.194;2022-08-21T11:20:50;4.30;;;1.90;;
1390;SDS011;690;51.454;7.194;2022-08-21T11:23:31;3.37;;;1.80;;
1390;SDS011;690;51.454;7.194;2022-08-21T11:26:06;4.63;;;1.67;;
1390;SDS011;690;51.454;7.194;2022-08-21T11:28:38;3.13;;;1.90;;
1390;SDS011;690;51.454;7.194;2022-08-21T11:31:15;2.63;;;1.43;;
1390;SDS011;690;51.454;7.194;2022-08-21T11:33:58;3.00;;;1.67;;
1390;SDS011;690;51.454;7.194;2022-08-21T11:36:36;3.73;;;1.80;;
1390;SDS011;690;51.454;7.194;2022-08-21T11:39:12;3.30;;;1.30;;
1390;SDS011;690;51.454;7.194;2022-08-21T11:41:47;5.50;;;2.10;;
1390;SDS011;690;51.454;7.194;2022-08-21T11:44:24;2.07;;;1.20;;
1390;SDS011;690;51.454;7.194;2022-08-21T11:47:08;3.20;;;1.50;;
1390;SDS011;690;51.454;7.194;2022-08-21T11:49:53;5.13;;;1.10;;
1390;SDS011;690;51.454;7.194;2022-08-21T11:52:30;1.80;;;1.27;;
1390;SDS011;690;51.454;7.194;2022-08-21T11:55:02;2.40;;;1.20;;
1390;SDS011;690;51.454;7.194;2022-08-21T11:57:34;2.33;;;1.40;;
1390;SDS011;690;51.454;7.194;2022-08-21T12:00:06;2.37;;;1.40;;
1390;SDS011;690;51.454;7.194;2022-08-21T12:02:40;5.83;;;1.70;;
1390;SDS011;690;51.454;7.194;2022-08-21T12:05:20;5.27;;;1.73;;
1390;SDS011;690;51.454;7.194;2022-08-21T12:08:00;2.90;;;1.43;;
1390;SDS011;690;51.454;7.194;2022-08-21T12:10:32;2.70;;;1.60;;
1390;SDS011;690;51.454;7.194;2022-08-21T12:13:05;4.00;;;1.60;;
1390;SDS011;690;51.454;7.194;2022-08-21T12:15:35;2.90;;;1.50;;
1390;SDS011;690;51.454;7.194;2022-08-21T12:18:03;4.70;;;1.50;;
1390;SDS011;690;51.454;7.194;2022-08-21T12:20:39;2.17;;;1.40;;
1390;SDS011;690;51.454;7.194;2022-08-21T12:23:17;3.73;;;1.60;;
1390;SDS011;690;51.454;7.194;2022-08-21T12:25:58;3.37;;;2.20;;
1390;SDS011;690;51.454;7.194;2022-08-21T12:28:29;3.90;;;1.70;;
1390;SDS011;690;51.454;7.194;2022-08-21T12:30:57;2.80;;;1.40;;
1390;SDS011;690;51.454;7.194;2022-08-21T12:33:26;7.30;;;1.77;;
1390;SDS011;690;51.454;7.194;2022-08-21T12:36:01;3.10;;;1.73;;
1390;SDS011;690;51.454;7.194;2022-08-21T12:38:33;3.50;;;1.77;;
1390;SDS011;690;51.454;7.194;2022-08-21T12:41:10;3.30;;;1.80;;
1390;SDS011;690;51.454;7.194;2022-08-21T12:43:42;2.70;;;1.80;;
1390;SDS011;690;51.454;7.194;2022-08-21T12:46:15;3.57;;;2.00;;
1390;SDS011;690;51.454;7.194;2022-08-21T12:48:45;2.57;;;1.57;;
1390;SDS011;690;51.454;7.194;2022-08-21T12:51:17;4.13;;;2.00;;
1390;SDS011;690;51.454;7.194;2022-08-21T12:53:53;4.00;;;1.80;;
1390;SDS011;690;51.454;7.194;2022-08-21T12:56:23;1.93;;;1.47;;
1390;SDS011;690;51.454;7.194;2022-08-21T12:58:53;2.50;;;1.80;;
1390;SDS011;690;51.454;7.194;2022-08-21T13:01:22;2.10;;;1.80;;
1390;SDS011;690;51.454;7.194;2022-08-21T13:03:54;3.43;;;1.80;;
1390;SDS011;690;51.454;7.194;2022-08-21T13:06:24;6.60;;;1.50;;
1390;SDS011;690;51.454;7.194;2022-08-21T13:08:57;3.33;;;1.70;;
1390;SDS011;690;51.454;7.194;2022-08-21T13:11:31;5.60;;;1.67;;
1390;SDS011;690;51.454;7.194;2022-08-21T13:13:58;3.30;;;1.37;;
1390;SDS011;690;51.454;7.194;2022-08-21T13:16:28;1.90;;;1.30;;
1390;SDS011;690;51.454;7.194;2022-08-21T13:18:57;2.90;;;1.37;;
1390;SDS011;690;51.454;7.194;2022-08-21T13:21:27;2.40;;;1.30;;
1390;SDS011;690;51.454;7.194;2022-08-21T13:24:08;1.37;;;1.00;;
1390;SDS011;690;51.454;7.194;2022-08-21T13:26:38;1.87;;;1.30;;
1390;SDS011;690;51.454;7.194;2022-08-21T13:29:06;2.43;;;1.50;;
1390;SDS011;690;51.454;7.194;2022-08-21T13:31:35;3.00;;;1.80;;
1390;SDS011;690;51.454;7.194;2022-08-21T13:34:03;1.40;;;1.10;;
1390;SDS011;690;51.454;7.194;2022-08-21T13:36:35;1.33;;;1.10;;
1390;SDS011;690;51.454;7.194;2022-08-21T13:39:05;1.83;;;1.30;;
1390;SDS011;690;51.454;7.194;2022-08-21T13:41:37;2.70;;;1.67;;
1390;SDS011;690;51.454;7.194;2022-08-21T13:44:14;1.30;;;0.80;;
1390;SDS011;690;51.454;7.194;2022-08-21T13:46:43;4.70;;;1.33;;
1390;SDS011;690;51.454;7.194;2022-08-21T13:49:12;2.53;;;1.20;;
1390;SDS011;690;51.454;7.194;2022-08-21T13:51:41;2.57;;;1.10;;
1390;SDS011;690;51.454;7.194;2022-08-21T13:54:23;2.33;;;1.50;;
1390;SDS011;690;51.454;7.194;2022-08-21T13:56:52;2.93;;;1.10;;
1390;SDS011;690;51.454;7.194;2022-08-21T13:59:25;4.83;;;1.60;;
1390;SDS011;690;51.454;7.194;2022-08-21T14:01:54;4.47;;;1.70;;
1390;SDS011;690;51.454;7.194;2022-08-21T14:04:25;1.93;;;1.40;;
1390;SDS011;690;51.454;7.194;2022-08-21T14:06:57;3.20;;;1.40;;
1390;SDS011;690;51.454;7.194;2022-08-21T14:09:28;2.40;;;1.50;;
1390;SDS011;690;51.454;7.194;2022-08-21T14:11:58;2.37;;;1.60;;
1390;SDS011;690;51.454;7.194;2022-08-21T14:14:29;2.30;;;1.47;;
1390;SDS011;690;51.454;7.194;2022-08-21T14:16:58;2.23;;;1.40;;
1390;SDS011;690;51.454;7.194;2022-08-21T14:19:28;3.07;;;0.90;;
1390;SDS011;690;51.454;7.194;2022-08-21T14:24:49;1.93;;;1.27;;
1390;SDS011;690;51.454;7.194;2022-08-21T14:27:16;2.50;;;1.73;;
1390;SDS011;690;51.454;7.194;2022-08-21T14:29:44;2.37;;;1.40;;
1390;SDS011;690;51.454;7.194;2022-08-21T14:32:12;2.73;;;1.23;;
1390;SDS011;690;51.454;7.194;2022-08-21T14:34:41;3.77;;;1.40;;
1390;SDS011;690;51.454;7.194;2022-08-21T14:37:08;2.07;;;1.57;;
1390;SDS011;690;51.454;7.194;2022-08-21T14:39:35;2.50;;;1.77;;
1390;SDS011;690;51.454;7.194;2022-08-21T14:42:03;2.00;;;1.53;;
1390;SDS011;690;51.454;7.194;2022-08-21T14:44:30;3.60;;;1.73;;
1390;SDS011;690;51.454;7.194;2022-08-21T14:46:58;2.63;;;1.37;;
1390;SDS011;690;51.454;7.194;2022-08-21T14:49:26;3.77;;;1.60;;
1390;SDS011;690;51.454;7.194;2022-08-21T14:51:54;4.63;;;1.83;;
1390;SDS011;690;51.454;7.194;2022-08-21T14:54:22;4.30;;;1.57;;
1390;SDS011;690;51.454;7.194;2022-08-21T14:56:50;2.97;;;1.47;;
1390;SDS011;690;51.454;7.194;2022-08-21T14:59:18;3.20;;;1.67;;
1390;SDS011;690;51.454;7.194;2022-08-21T15:01:46;3.57;;;1.90;;
1390;SDS011;690;51.454;7.194;2022-08-21T15:04:14;11.60;;;1.77;;
1390;SDS011;690;51.454;7.194;2022-08-21T15:06:41;3.43;;;1.77;;
1390;SDS011;690;51.454;7.194;2022-08-21T15:09:07;4.50;;;1.83;;
1390;SDS011;690;51.454;7.194;2022-08-21T15:11:34;3.10;;;1.80;;
1390;SDS011;690;51.454;7.194;2022-08-21T15:14:03;2.70;;;1.80;;
1390;SDS011;690;51.454;7.194;2022-08-21T15:16:34;3.73;;;2.00;;
1390;SDS011;690;51.454;7.194;2022-08-21T15:19:02;4.83;;;2.00;;
1390;SDS011;690;51.454;7.194;2022-08-21T15:21:29;2.93;;;1.67;;
1390;SDS011;690;51.454;7.194;2022-08-21T15:23:55;3.40;;;2.07;;
1390;SDS011;690;51.454;7.194;2022-08-21T15:26:22;4.17;;;1.70;;
1390;SDS011;690;51.454;7.194;2022-08-21T15:28:50;4.30;;;2.47;;
1390;SDS011;690;51.454;7.194;2022-08-21T15:31:17;3.57;;;1.60;;
1390;SDS011;690;51.454;7.194;2022-08-21T15:33:45;2.93;;;2.17;;
1390;SDS011;690;51.454;7.194;2022-08-21T15:36:12;5.60;;;1.90;;
1390;SDS011;690;51.454;7.194;2022-08-21T15:38:39;2.70;;;2.17;;
1390;SDS011;690;51.454;7.194;2022-08-21T15:41:06;4.83;;;1.90;;
1390;SDS011;690;51.454;7.194;2022-08-21T15:43:36;4.13;;;1.70;;
1390;SDS011;690;51.454;7.194;2022-08-21T15:46:08;2.73;;;2.17;;
1390;SDS011;690;51.454;7.194;2022-08-21T15:48:37;4.57;;;2.10;;